createdAt,value
2019-06-07T00:00:38.034Z,98.10
2019-06-07T00:02:54.368Z,98.00
2019-06-07T00:05:23.643Z,97.50
2019-06-07T00:07:53.094Z,97.70
2019-06-07T00:10:35.944Z,97.20
2019-06-07T00:12:53.310Z,97.60
2019-06-07T00:15:28.698Z,97.80
2019-06-07T00:17:53.326Z,98.00
2019-06-07T00:20:23.654Z,97.80
2019-06-07T00:22:53.110Z,98.00
2019-06-07T00:25:24.412Z,98.20
2019-06-07T00:27:53.281Z,98.10
2019-06-07T00:30:42.431Z,98.20
2019-06-07T00:32:54.138Z,98.20
2019-06-07T00:35:23.495Z,97.80
2019-06-07T00:37:52.667Z,98.00
2019-06-07T00:40:31.393Z,98.40
2019-06-07T00:42:52.746Z,98.30
2019-06-07T00:45:24.505Z,98.20
2019-06-07T00:47:52.783Z,98.20
2019-06-07T00:50:24.098Z,98.20
2019-06-07T00:53:14.737Z,98.40
2019-06-07T00:55:27.569Z,98.20
2019-06-07T00:57:54.723Z,98.20
2019-06-07T01:00:25.572Z,98.20
2019-06-07T01:02:55.030Z,98.50
2019-06-07T01:12:23.900Z,98.50
2019-06-07T01:14:52.620Z,98.00
2019-06-07T01:17:39.210Z,98.50
2019-06-07T01:19:57.165Z,98.60
2019-06-07T01:22:28.992Z,99.00
2019-06-07T01:24:57.295Z,98.70
2019-06-07T01:27:26.513Z,98.60
2019-06-07T01:29:55.729Z,98.80
2019-06-07T01:32:27.291Z,99.10
2019-06-07T01:34:56.167Z,99.00
2019-06-07T01:37:27.881Z,98.90
2019-06-07T01:39:56.530Z,98.90
2019-06-07T01:42:29.490Z,99.30
2019-06-07T01:44:56.443Z,98.90
2019-06-07T01:47:28.690Z,99.10
2019-06-07T01:49:56.463Z,99.30
2019-06-07T01:52:26.739Z,99.50
2019-06-07T01:54:58.826Z,99.00
2019-06-07T01:57:43.067Z,99.10
2019-06-07T01:59:57.875Z,99.20
2019-06-07T02:02:30.003Z,99.20
2019-06-07T02:04:57.846Z,99.40
2019-06-07T02:07:30.346Z,99.30
2019-06-07T02:09:57.925Z,99.10
2019-06-07T02:12:37.577Z,99.30
2019-06-07T02:14:57.945Z,99.10
2019-06-07T02:17:30.143Z,99.20
2019-06-07T02:19:58.031Z,98.90
2019-06-07T02:22:46.311Z,99.20
2019-06-07T02:27:46.124Z,99.20
2019-06-07T02:32:46.248Z,99.20
2019-06-07T02:35:15.459Z,99.20
2019-06-07T02:37:44.494Z,99.60
2019-06-07T02:40:16.342Z,99.40
2019-06-07T02:42:45.511Z,99.50
2019-06-07T02:45:14.793Z,99.40
2019-06-07T02:47:45.810Z,99.30
2019-06-07T02:50:15.194Z,99.50
2019-06-07T02:52:44.441Z,99.50
2019-06-07T02:55:14.512Z,99.40
2019-06-07T02:57:43.657Z,99.60
2019-06-07T03:00:41.161Z,99.60
2019-06-07T03:02:45.868Z,99.70
2019-06-07T03:05:15.524Z,99.70
2019-06-07T03:07:47.033Z,99.70
2019-06-07T03:10:16.228Z,99.90
2019-06-07T03:12:48.290Z,99.70
2019-06-07T03:15:32.707Z,99.70
2019-06-07T03:17:57.746Z,99.70
2019-06-07T03:20:32.403Z,99.80
2019-06-07T03:23:02.007Z,99.40
2019-06-07T03:25:39.171Z,99.40
2019-06-07T03:28:08.464Z,99.60
2019-06-07T03:30:57.077Z,99.80
2019-06-07T03:33:08.514Z,99.70
2019-06-07T03:35:38.313Z,99.70
2019-06-07T03:38:08.328Z,99.90
2019-06-07T03:40:39.883Z,99.70
2019-06-07T03:43:08.564Z,99.90
2019-06-07T03:45:41.254Z,99.90
2019-06-07T03:48:10.775Z,99.80
2019-06-07T03:50:42.403Z,99.80
2019-06-07T03:53:11.540Z,99.90
2019-06-07T03:55:41.456Z,99.90
2019-06-07T03:58:31.398Z,99.90
2019-06-07T04:00:43.150Z,99.90
2019-06-07T04:03:32.306Z,99.90
2019-06-07T04:05:43.831Z,99.90
2019-06-07T04:08:12.953Z,99.90
2019-06-07T04:10:58.499Z,99.90
2019-06-07T04:13:12.909Z,99.90
2019-06-07T04:15:42.331Z,99.90
2019-06-07T04:18:11.533Z,99.30
2019-06-07T04:20:41.430Z,99.90
2019-06-07T04:23:27.366Z,99.90
2019-06-07T04:25:42.708Z,99.30
2019-06-07T04:28:12.288Z,99.60
2019-06-07T04:30:43.122Z,99.10
2019-06-07T04:33:13.528Z,99.90
2019-06-07T04:35:45.279Z,99.90
2019-06-07T04:38:15.733Z,99.80
2019-06-07T04:40:45.393Z,99.90
2019-06-07T04:43:14.756Z,99.90
2019-06-07T04:45:50.741Z,99.90
2019-06-07T04:48:14.864Z,99.90
2019-06-07T04:50:44.334Z,99.70
2019-06-07T04:53:14.661Z,99.70
2019-06-07T04:55:44.262Z,99.80
2019-06-07T04:58:13.467Z,99.80
2019-06-07T05:00:58.401Z,99.90
2019-06-07T05:03:13.790Z,99.90
2019-06-07T05:05:43.904Z,99.80
2019-06-07T05:08:27.703Z,99.60
2019-06-07T05:10:44.304Z,99.90
2019-06-07T05:13:13.571Z,99.90
2019-06-07T05:15:42.699Z,99.30
2019-06-07T05:18:11.997Z,99.50
2019-06-07T05:20:44.298Z,99.70
2019-06-07T05:23:59.389Z,99.80
2019-06-07T05:25:44.823Z,99.90
2019-06-07T05:28:14.154Z,99.10
2019-06-07T05:31:04.619Z,99.60
2019-06-07T05:33:14.237Z,99.20
2019-06-07T05:35:43.737Z,99.60
2019-06-07T05:38:13.074Z,99.90
2019-06-07T05:40:48.842Z,99.80
2019-06-07T05:43:26.230Z,99.10
2019-06-07T05:45:55.422Z,99.80
2019-06-07T05:48:26.818Z,99.20
2019-06-07T05:50:57.448Z,98.70
2019-06-07T05:53:26.938Z,98.70
2019-06-07T05:55:56.170Z,99.60
2019-06-07T05:58:25.496Z,99.10
2019-06-07T06:00:54.879Z,99.60
2019-06-07T06:03:23.987Z,99.90
2019-06-07T06:05:55.436Z,99.40
2019-06-07T06:08:24.405Z,99.10
2019-06-07T06:10:53.631Z,99.10
2019-06-07T06:13:22.732Z,98.60
2019-06-07T06:16:01.652Z,99.30
2019-06-07T06:18:25.588Z,98.80
2019-06-07T06:21:15.140Z,99.10
2019-06-07T06:23:25.830Z,99.00
2019-06-07T06:25:57.655Z,98.80
2019-06-07T06:28:25.826Z,98.10
2019-06-07T06:30:54.999Z,98.30
2019-06-07T06:33:33.901Z,98.60
2019-06-07T06:35:55.180Z,97.30
2019-06-07T06:38:24.359Z,98.10
2019-06-07T06:41:12.106Z,97.70
2019-06-07T06:43:24.667Z,97.70
2019-06-07T06:45:53.943Z,97.10
2019-06-07T06:48:23.230Z,97.80
2019-06-07T06:50:52.816Z,96.70
2019-06-07T06:53:22.179Z,97.30
2019-06-07T06:55:51.548Z,97.20
2019-06-07T06:58:21.102Z,97.20
2019-06-07T07:01:05.394Z,97.30
2019-06-07T07:05:54.909Z,96.20
2019-06-07T07:08:28.721Z,97.20
2019-06-07T07:10:57.746Z,95.90
2019-06-07T07:13:26.841Z,95.70
2019-06-07T07:15:58.378Z,95.40
2019-06-07T07:18:26.904Z,95.40
2019-06-07T07:20:57.599Z,95.70
2019-06-07T07:23:27.091Z,96.50
2019-06-07T07:25:59.413Z,96.60
2019-06-07T07:28:27.324Z,96.00
2019-06-07T07:30:57.353Z,95.40
2019-06-07T07:34:20.177Z,95.90
2019-06-07T07:36:35.250Z,95.10
2019-06-07T07:38:28.581Z,96.50
2019-06-07T07:41:13.375Z,95.00
2019-06-07T07:43:28.737Z,95.90
2019-06-07T07:46:02.850Z,96.30
2019-06-07T07:48:29.464Z,95.60
2019-06-07T07:51:00.888Z,96.10
2019-06-07T07:53:47.773Z,94.40
2019-06-07T07:56:00.741Z,94.70
2019-06-07T07:58:30.088Z,93.80
2019-06-07T08:01:09.618Z,94.40
2019-06-07T08:03:30.086Z,94.40
2019-06-07T08:06:00.219Z,95.00
2019-06-07T08:08:30.767Z,94.20
2019-06-07T08:11:02.141Z,95.20
2019-06-07T08:13:31.276Z,95.20
2019-06-07T08:16:09.052Z,94.10
2019-06-07T08:18:31.379Z,94.30
2019-06-07T08:21:21.569Z,93.90
2019-06-07T08:23:34.504Z,94.20
2019-06-07T08:26:03.687Z,93.60
2019-06-07T08:28:32.811Z,93.50
2019-06-07T08:31:06.699Z,94.40
2019-06-07T08:33:32.963Z,94.10
2019-06-07T08:36:14.021Z,93.00
2019-06-07T08:38:47.094Z,92.50
2019-06-07T08:41:11.386Z,91.70
2019-06-07T08:43:35.155Z,92.60
2019-06-07T08:46:07.363Z,92.00
2019-06-07T08:48:36.778Z,92.60
2019-06-07T08:51:08.612Z,93.90
2019-06-07T08:53:37.053Z,92.40
2019-06-07T08:56:10.587Z,93.30
2019-06-07T08:58:37.208Z,91.80
2019-06-07T09:01:08.944Z,91.40
2019-06-07T09:03:37.391Z,92.30
2019-06-07T09:06:40.654Z,93.00
2019-06-07T09:08:37.589Z,92.10
2019-06-07T09:11:11.223Z,90.70
2019-06-07T09:13:37.935Z,91.70
2019-06-07T09:16:08.978Z,91.30
2019-06-07T09:18:43.914Z,92.50
2019-06-07T09:21:09.763Z,93.50
2019-06-07T09:23:39.156Z,91.90
2019-06-07T09:26:16.540Z,91.10
2019-06-07T09:28:39.367Z,90.30
2019-06-07T09:31:10.416Z,92.10
2019-06-07T09:33:39.511Z,89.00
2019-06-07T09:36:12.584Z,90.60
2019-06-07T09:38:40.188Z,92.70
2019-06-07T09:41:09.795Z,92.70
2019-06-07T09:44:04.689Z,91.40
2019-06-07T09:46:15.264Z,91.40
2019-06-07T09:49:10.469Z,90.50
2019-06-07T09:51:19.308Z,92.10
2019-06-07T09:53:42.741Z,92.20
2019-06-07T09:56:12.355Z,92.70
2019-06-07T09:58:59.573Z,92.80
2019-06-07T10:01:13.910Z,91.80
2019-06-07T10:03:43.516Z,93.30
2019-06-07T10:06:13.675Z,93.00
2019-06-07T10:11:16.251Z,90.70
2019-06-07T10:13:45.595Z,91.30
2019-06-07T10:16:14.751Z,91.80
2019-06-07T10:18:43.951Z,90.80
2019-06-07T10:21:15.174Z,89.00
2019-06-07T10:23:44.203Z,90.50
2019-06-07T10:26:13.546Z,90.90
2019-06-07T10:28:42.748Z,90.20
2019-06-07T10:31:11.882Z,91.10
2019-06-07T10:33:41.304Z,91.50
2019-06-07T10:36:10.762Z,90.40
2019-06-07T10:38:40.047Z,90.70
2019-06-07T10:41:09.325Z,90.90
2019-06-07T10:43:38.444Z,90.60
2019-06-07T10:46:07.682Z,89.70
2019-06-07T10:48:37.204Z,90.20
2019-06-07T10:51:08.508Z,90.60
2019-06-07T10:53:37.818Z,90.00
2019-06-07T10:56:07.066Z,87.00
2019-06-07T10:58:36.499Z,90.70
2019-06-07T11:01:07.251Z,88.60
2019-06-07T11:03:36.811Z,88.30
2019-06-07T11:06:06.256Z,87.00
2019-06-07T11:08:35.781Z,87.60
2019-06-07T11:11:05.969Z,88.30
2019-06-07T11:13:35.384Z,86.80
2019-06-07T11:16:05.051Z,88.00
2019-06-07T11:18:34.133Z,87.60
2019-06-07T11:21:03.217Z,88.10
2019-06-07T11:23:32.447Z,83.00
2019-06-07T11:26:01.859Z,85.10
2019-06-07T11:28:31.090Z,85.00
2019-06-07T11:31:00.187Z,83.90
2019-06-07T11:33:29.367Z,86.60
2019-06-07T11:35:58.562Z,86.70
2019-06-07T11:38:27.803Z,83.90
2019-06-07T11:40:56.962Z,84.10
2019-06-07T11:43:26.314Z,84.20
2019-06-07T11:45:55.537Z,82.10
2019-06-07T11:48:24.829Z,82.40
2019-06-07T11:50:53.894Z,80.70
2019-06-07T11:53:23.363Z,86.40
2019-06-07T11:55:52.563Z,82.40
2019-06-07T11:58:22.108Z,82.40
2019-06-07T12:00:51.382Z,83.60
2019-06-07T12:03:20.583Z,87.90
2019-06-07T12:05:49.798Z,82.70
2019-06-07T12:08:20.163Z,81.40
2019-06-07T12:10:49.369Z,83.40
2019-06-07T12:13:18.986Z,84.50
2019-06-07T12:15:49.296Z,85.00
2019-06-07T12:18:19.673Z,85.10
2019-06-07T12:20:49.117Z,81.50
2019-06-07T12:23:18.471Z,82.50
2019-06-07T12:25:47.642Z,80.30
2019-06-07T12:28:17.086Z,83.90
2019-06-07T12:30:46.490Z,81.60
2019-06-07T12:33:15.700Z,81.60
2019-06-07T12:35:44.899Z,81.80
2019-06-07T12:38:14.601Z,82.30
2019-06-07T12:40:56.786Z,82.20
2019-06-07T12:43:16.701Z,80.70
2019-06-07T12:45:46.101Z,79.60
2019-06-07T12:48:18.516Z,81.30
2019-06-07T12:50:46.121Z,79.00
2019-06-07T12:53:15.613Z,78.70
2019-06-07T12:55:44.986Z,81.00
2019-06-07T12:58:14.269Z,80.50
2019-06-07T13:00:43.453Z,79.70
2019-06-07T13:03:14.149Z,80.40
2019-06-07T13:05:57.976Z,80.70
2019-06-07T13:08:15.578Z,79.40
2019-06-07T13:10:44.891Z,79.50
2019-06-07T13:13:14.020Z,83.50
2019-06-07T13:15:43.224Z,80.20
2019-06-07T13:18:14.947Z,83.10
2019-06-07T13:20:43.207Z,87.10
2019-06-07T13:23:12.409Z,85.90
2019-06-07T13:25:46.625Z,88.20
2019-06-07T13:28:12.522Z,87.20
2019-06-07T13:30:41.778Z,87.20
2019-06-07T13:33:10.894Z,85.50
2019-06-07T13:35:40.093Z,83.80
2019-06-07T13:38:11.021Z,85.10
2019-06-07T13:40:40.106Z,85.20
2019-06-07T13:43:09.236Z,88.10
2019-06-07T13:45:38.383Z,86.20
2019-06-07T13:48:07.747Z,87.00
2019-06-07T13:50:37.103Z,90.10
2019-06-07T13:53:06.263Z,90.50
2019-06-07T13:55:35.560Z,90.10
2019-06-07T13:58:04.764Z,90.00
2019-06-07T14:00:33.898Z,91.80
2019-06-07T14:03:03.258Z,91.80
2019-06-07T14:05:32.306Z,91.80
2019-06-07T14:08:01.485Z,91.90
2019-06-07T14:10:30.751Z,91.70
2019-06-07T14:12:59.889Z,91.70
2019-06-07T14:15:34.012Z,91.00
2019-06-07T14:18:00.255Z,92.50
2019-06-07T14:20:34.124Z,92.30
2019-06-07T14:23:00.275Z,92.50
2019-06-07T14:25:29.446Z,91.80
2019-06-07T14:27:58.610Z,92.20
2019-06-07T14:30:28.413Z,92.40
2019-06-07T14:32:58.266Z,91.80
2019-06-07T14:35:28.896Z,91.60
2019-06-07T14:37:58.182Z,91.60
2019-06-07T14:40:27.909Z,91.90
2019-06-07T14:42:57.150Z,90.10
2019-06-07T14:45:27.592Z,90.50
2019-06-07T14:47:57.063Z,91.40
2019-06-07T14:50:26.167Z,90.40
2019-06-07T14:52:55.357Z,90.30
2019-06-07T14:55:25.136Z,90.70
2019-06-07T14:57:54.418Z,90.20
2019-06-07T15:00:30.424Z,91.30
2019-06-07T15:02:59.675Z,90.60
2019-06-07T15:05:31.334Z,90.40
2019-06-07T15:08:01.940Z,91.70
2019-06-07T15:10:32.346Z,92.40
2019-06-07T15:13:02.032Z,92.50
2019-06-07T15:15:32.659Z,92.80
2019-06-07T15:18:02.041Z,93.30
2019-06-07T15:20:32.165Z,93.10
2019-06-07T15:23:01.534Z,92.70
2019-06-07T15:25:31.154Z,92.50
2019-06-07T15:28:00.810Z,93.00
2019-06-07T15:30:29.984Z,92.40
2019-06-07T15:32:59.926Z,93.40
2019-06-07T15:35:30.246Z,93.50
2019-06-07T15:37:59.573Z,93.50
2019-06-07T15:40:29.103Z,94.00
2019-06-07T15:43:06.052Z,93.40
2019-06-07T15:49:18.718Z,94.20
2019-06-07T15:51:47.934Z,94.40
2019-06-07T15:54:17.031Z,94.50
2019-06-07T15:56:46.466Z,94.60
2019-06-07T15:59:15.563Z,93.80
2019-06-07T16:01:44.666Z,94.20
2019-06-07T16:04:15.537Z,94.60
2019-06-07T16:06:44.812Z,94.60
2019-06-07T16:09:14.069Z,93.80
2019-06-07T16:11:43.647Z,94.20
2019-06-07T16:14:13.455Z,94.10
2019-06-07T16:16:43.385Z,94.30
2019-06-07T16:19:12.703Z,94.50
2019-06-07T16:21:41.817Z,94.60
2019-06-07T16:24:11.054Z,94.30
2019-06-07T16:26:40.299Z,94.60
2019-06-07T16:29:09.412Z,94.60
2019-06-07T16:31:38.902Z,94.40
2019-06-07T16:34:08.226Z,94.70
2019-06-07T16:36:38.351Z,94.40
2019-06-07T16:39:08.782Z,94.90
2019-06-07T16:41:38.345Z,94.50
2019-06-07T16:44:07.830Z,94.70
2019-06-07T16:46:37.011Z,94.30
2019-06-07T16:49:06.603Z,95.10
2019-06-07T16:51:36.970Z,94.90
2019-06-07T16:54:06.394Z,95.00
2019-06-07T16:56:35.799Z,94.40
2019-06-07T16:59:05.015Z,94.80
2019-06-07T17:01:36.943Z,94.90
2019-06-07T17:04:06.598Z,94.60
2019-06-07T17:06:35.823Z,94.70
2019-06-07T17:09:07.228Z,94.50
2019-06-07T17:11:38.142Z,94.20
2019-06-07T17:14:07.407Z,94.60
2019-06-07T17:16:36.644Z,94.20
2019-06-07T17:19:05.911Z,94.30
2019-06-07T17:21:35.042Z,94.00
2019-06-07T17:24:04.536Z,94.40
2019-06-07T17:26:33.655Z,95.00
2019-06-07T17:29:02.779Z,94.40
2019-06-07T17:31:31.934Z,94.10
2019-06-07T17:34:01.013Z,93.80
2019-06-07T17:36:30.163Z,93.80
2019-06-07T17:38:59.263Z,94.00
2019-06-07T17:41:28.517Z,93.40
2019-06-07T17:44:00.376Z,94.00
2019-06-07T17:46:28.876Z,93.80
2019-06-07T17:48:57.923Z,94.00
2019-06-07T17:51:27.196Z,93.50
2019-06-07T17:53:56.439Z,93.30
2019-06-07T17:56:25.471Z,92.20
2019-06-07T17:58:54.909Z,93.30
2019-06-07T18:01:24.463Z,93.50
2019-06-07T18:03:53.643Z,93.30
2019-06-07T18:06:24.135Z,93.40
2019-06-07T18:08:54.072Z,93.80
2019-06-07T18:11:23.183Z,93.20
2019-06-07T18:14:06.596Z,93.40
2019-06-07T18:16:23.058Z,92.80
2019-06-07T18:18:52.788Z,92.90
2019-06-07T18:21:22.056Z,92.60
2019-06-07T18:23:52.868Z,93.30
2019-06-07T18:26:22.085Z,93.50
2019-06-07T18:28:52.623Z,93.30
2019-06-07T18:31:22.059Z,93.30
2019-06-07T18:33:51.227Z,92.60
2019-06-07T18:36:20.381Z,93.30
2019-06-07T18:38:49.585Z,93.10
2019-06-07T18:41:18.715Z,93.10
2019-06-07T18:43:48.830Z,93.40
2019-06-07T18:46:18.599Z,93.30
2019-06-07T18:48:48.381Z,93.10
2019-06-07T18:51:18.748Z,93.70
2019-06-07T18:57:02.929Z,93.00
2019-06-07T18:59:34.986Z,93.90
2019-06-07T19:02:19.493Z,94.00
2019-06-07T19:04:54.164Z,93.80
2019-06-07T19:07:27.921Z,93.50
2019-06-07T19:10:05.413Z,93.90
2019-06-07T19:12:48.906Z,94.10
2019-06-07T19:15:32.088Z,94.00
2019-06-07T19:18:01.491Z,93.70
2019-06-07T19:20:31.638Z,93.70
2019-06-07T19:23:01.042Z,93.90
2019-06-07T19:25:30.345Z,94.50
2019-06-07T19:28:00.915Z,94.30
2019-06-07T19:30:30.447Z,93.80
2019-06-07T19:32:59.848Z,93.90
2019-06-07T19:35:30.393Z,93.70
2019-06-07T19:37:59.957Z,93.50
2019-06-07T19:40:29.465Z,93.90
2019-06-07T19:42:58.965Z,93.70
2019-06-07T19:45:31.641Z,93.60
2019-06-07T19:48:02.908Z,93.90
2019-06-07T19:50:32.251Z,93.90
2019-06-07T19:53:03.911Z,93.80
2019-06-07T19:55:48.523Z,93.60
2019-06-07T19:58:19.415Z,93.60
2019-06-07T20:00:49.182Z,93.50
2019-06-07T20:03:32.927Z,93.50
2019-06-07T20:06:11.723Z,93.60
2019-06-07T20:08:47.956Z,93.50
2019-06-07T20:11:31.949Z,93.40
2019-06-07T20:14:01.287Z,93.80
2019-06-07T20:16:31.102Z,93.80
2019-06-07T20:19:00.372Z,94.10
2019-06-07T20:21:29.997Z,94.10
2019-06-07T20:24:00.205Z,94.10
2019-06-07T20:26:39.411Z,94.00
2019-06-07T20:29:25.741Z,94.50
2019-06-07T20:31:56.244Z,94.20
2019-06-07T20:34:25.504Z,94.70
2019-06-07T20:36:54.623Z,93.60
2019-06-07T20:39:23.962Z,93.80
2019-06-07T20:41:53.193Z,93.90
2019-06-07T20:44:22.744Z,93.10
2019-06-07T20:46:51.924Z,93.70
2019-06-07T20:49:21.136Z,93.20
2019-06-07T20:51:50.494Z,93.70
2019-06-07T20:54:19.699Z,93.50
2019-06-07T20:56:49.174Z,93.50
2019-06-07T20:59:37.370Z,93.30
2019-06-07T21:02:07.208Z,93.80
2019-06-07T21:04:36.381Z,94.00
2019-06-07T21:07:10.024Z,93.70
2019-06-07T21:09:39.464Z,93.60
2019-06-07T21:12:09.899Z,94.00
2019-06-07T21:14:39.402Z,93.90
2019-06-07T21:17:08.627Z,93.60
2019-06-07T21:19:37.793Z,94.40
2019-06-07T21:22:08.739Z,94.10
2019-06-07T21:24:38.144Z,94.80
2019-06-07T21:27:07.522Z,94.40
2019-06-07T21:29:36.663Z,94.40
2019-06-07T21:32:05.759Z,94.40
2019-06-07T21:34:34.875Z,94.10
2019-06-07T21:37:03.978Z,94.30
2019-06-07T21:39:33.134Z,94.20
2019-06-07T21:42:02.432Z,94.10
2019-06-07T21:44:31.712Z,94.50
2019-06-07T21:47:02.020Z,94.10
2019-06-07T21:49:31.144Z,94.50
2019-06-07T21:52:00.344Z,94.20
2019-06-07T21:54:29.529Z,94.50
2019-06-07T21:56:58.652Z,94.70
2019-06-07T21:59:27.725Z,94.60
2019-06-07T22:01:56.958Z,94.50
2019-06-07T22:04:26.245Z,95.30
2019-06-07T22:06:55.435Z,95.30
2019-06-07T22:09:24.595Z,95.60
2019-06-07T22:11:53.776Z,95.80
2019-06-07T22:14:22.863Z,95.90
2019-06-07T22:16:52.074Z,95.70
2019-06-07T22:19:21.222Z,95.50
2019-06-07T22:22:02.189Z,95.40
2019-06-07T22:24:21.272Z,95.20
2019-06-07T22:26:50.357Z,95.70
2019-06-07T22:29:19.473Z,95.70
2019-06-07T22:31:48.503Z,95.80
2019-06-07T22:34:19.111Z,95.40
2019-06-07T22:36:48.310Z,95.60
2019-06-07T22:39:17.923Z,95.60
2019-06-07T22:41:47.226Z,95.10
2019-06-07T22:44:16.363Z,95.50
2019-06-07T22:46:45.577Z,95.90
2019-06-07T22:49:15.364Z,95.60
2019-06-07T22:51:44.627Z,95.70
2019-06-07T22:54:14.055Z,95.90
2019-06-07T22:56:51.605Z,95.70
2019-06-07T22:59:20.711Z,95.70
2019-06-07T23:01:49.879Z,96.00
2019-06-07T23:04:19.306Z,95.50
2019-06-07T23:06:48.583Z,95.50
2019-06-07T23:09:19.676Z,95.30
2019-06-07T23:11:48.587Z,95.70
2019-06-07T23:14:17.773Z,96.00
2019-06-07T23:16:55.573Z,95.60
2019-06-07T23:19:18.267Z,95.30
2019-06-07T23:21:47.717Z,95.80
2019-06-07T23:24:16.710Z,95.50
2019-06-07T23:26:45.967Z,95.30
2019-06-07T23:29:15.147Z,95.60
2019-06-07T23:31:44.315Z,96.30
2019-06-07T23:34:14.627Z,95.80
2019-06-07T23:36:43.852Z,95.90
2019-06-07T23:39:13.207Z,96.00
2019-06-07T23:41:42.279Z,96.20
2019-06-07T23:44:11.372Z,96.60
2019-06-07T23:46:40.395Z,96.40
2019-06-07T23:49:09.535Z,96.50
2019-06-07T23:51:38.617Z,96.60
2019-06-07T23:54:07.783Z,96.50
2019-06-07T23:56:37.028Z,96.40
2019-06-07T23:59:06.199Z,96.70
